Time;durP1;ratioP1;P1;durP2;ratioP2;P2;SDS_P1;SDS_P2;PMS_P1;PMS_P2;Temp;Humidity;BMP_temperature;BMP_pressure;BME280_temperature;BME280_humidity;BME280_pressure;Samples;Min_cycle;Max_cycle;Signal;HPM_P1;HPM_P2
2022/12/08 00:00:23;;;;;;;7.13;2.13;;;6.60;99.90;;;;;;5030578;28;20025;-69
2022/12/08 00:02:48;;;;;;;6.53;1.02;;;6.60;99.90;;;;;;5032324;28;20030;-70
2022/12/08 00:10:43;;;;;;;5.72;1.45;;;6.60;99.90;;;;;;5035419;28;20104;-69
2022/12/08 00:13:09;;;;;;;5.75;2.10;;;6.60;99.90;;;;;;5037041;28;20018;-70
2022/12/08 00:15:35;;;;;;;15.18;3.78;;;6.60;99.90;;;;;;5040492;28;20026;-70
2022/12/08 00:18:01;;;;;;;8.48;2.38;;;6.60;99.90;;;;;;5041731;28;20045;-70
2022/12/08 00:20:26;;;;;;;4.65;1.40;;;6.60;99.90;;;;;;5031026;28;20021;-70
2022/12/08 00:22:52;;;;;;;4.53;1.10;;;6.60;99.90;;;;;;5041213;28;20433;-69
2022/12/08 00:25:17;;;;;;;6.53;1.23;;;6.60;99.90;;;;;;5016770;28;20025;-70
2022/12/08 00:27:43;;;;;;;7.32;1.20;;;6.70;99.90;;;;;;5025313;28;20028;-70
2022/12/08 00:30:09;;;;;;;9.20;2.45;;;6.60;99.90;;;;;;5036653;28;20025;-71
2022/12/08 00:32:36;;;;;;;7.10;1.63;;;6.60;99.90;;;;;;5042270;28;20112;-70
2022/12/08 00:35:02;;;;;;;7.60;1.15;;;6.60;99.90;;;;;;5028992;28;20049;-70
2022/12/08 00:37:28;;;;;;;5.22;1.42;;;6.60;99.90;;;;;;5033825;28;20061;-70
2022/12/08 00:39:53;;;;;;;8.98;3.13;;;6.60;99.90;;;;;;5036662;28;20025;-69
2022/12/08 00:42:19;;;;;;;7.85;1.48;;;6.60;99.90;;;;;;5039467;28;20064;-69
2022/12/08 00:44:45;;;;;;;11.15;2.08;;;6.60;99.90;;;;;;5038405;28;20370;-69
2022/12/08 00:47:11;;;;;;;5.18;1.58;;;6.70;99.90;;;;;;5023467;28;20037;-69
2022/12/08 00:49:39;;;;;;;3.88;1.05;;;6.70;99.90;;;;;;5044180;28;20500;-70
2022/12/08 00:52:05;;;;;;;5.43;1.65;;;6.80;99.90;;;;;;5027081;28;20386;-69
2022/12/08 00:54:34;;;;;;;7.63;1.60;;;6.80;99.90;;;;;;5025171;28;20025;-70
2022/12/08 00:57:02;;;;;;;7.30;1.38;;;6.80;99.90;;;;;;5045679;28;20060;-69
2022/12/08 00:59:28;;;;;;;4.45;1.27;;;6.80;99.90;;;;;;5023296;28;20021;-70
2022/12/08 01:01:54;;;;;;;3.55;0.80;;;6.80;99.90;;;;;;5045543;28;20294;-70
2022/12/08 01:04:20;;;;;;;5.50;1.27;;;6.80;99.90;;;;;;5028791;28;20040;-70
2022/12/08 01:06:47;;;;;;;8.90;1.67;;;6.80;99.90;;;;;;5038913;28;20529;-70
2022/12/08 01:09:14;;;;;;;7.57;1.67;;;6.80;99.90;;;;;;5030545;28;20439;-70
2022/12/08 01:11:40;;;;;;;6.75;1.20;;;6.70;99.90;;;;;;5031491;28;20030;-69
2022/12/08 01:14:05;;;;;;;3.45;0.93;;;6.70;99.90;;;;;;5032133;28;20049;-70
2022/12/08 01:16:33;;;;;;;2.05;0.90;;;6.70;99.90;;;;;;5026573;28;20024;-70
2022/12/08 01:18:59;;;;;;;6.68;1.50;;;6.80;99.90;;;;;;5042796;28;20021;-69
2022/12/08 01:21:25;;;;;;;4.85;1.20;;;6.80;99.90;;;;;;5012906;28;20025;-69
2022/12/08 01:23:51;;;;;;;2.47;0.85;;;6.80;99.90;;;;;;5011159;28;20027;-70
2022/12/08 01:26:18;;;;;;;4.72;1.05;;;6.80;99.90;;;;;;5018633;28;20037;-70
2022/12/08 01:28:44;;;;;;;7.43;1.38;;;6.80;99.90;;;;;;5020222;28;20040;-70
2022/12/08 01:31:12;;;;;;;2.22;0.60;;;6.90;99.90;;;;;;5032836;28;20356;-68
2022/12/08 01:33:38;;;;;;;5.63;1.00;;;6.80;99.90;;;;;;5034551;28;20472;-70
2022/12/08 01:36:04;;;;;;;2.08;0.60;;;6.80;99.90;;;;;;5033448;28;20078;-70
2022/12/08 01:38:30;;;;;;;3.35;0.68;;;6.80;99.90;;;;;;5035302;28;20510;-70
2022/12/08 01:40:56;;;;;;;3.72;1.45;;;6.80;99.90;;;;;;5034300;28;20024;-70
2022/12/08 01:43:22;;;;;;;4.90;0.75;;;6.80;99.90;;;;;;5034253;28;20025;-70
2022/12/08 01:45:47;;;;;;;2.53;1.10;;;6.70;99.90;;;;;;5035204;28;20045;-70
2022/12/08 01:48:25;;;;;;;3.28;0.80;;;6.80;99.90;;;;;;5035139;28;20347;-69
2022/12/08 01:50:54;;;;;;;4.13;0.55;;;6.80;99.90;;;;;;5035268;28;20052;-70
2022/12/08 01:53:25;;;;;;;6.10;0.82;;;6.70;99.90;;;;;;5035075;28;20080;-70
2022/12/08 01:55:58;;;;;;;6.45;1.50;;;6.80;99.90;;;;;;5034989;28;20021;-69
2022/12/08 01:58:35;;;;;;;4.40;0.77;;;6.80;99.90;;;;;;5015372;28;20065;-68
2022/12/08 02:01:01;;;;;;;5.10;1.02;;;6.80;99.90;;;;;;5015454;28;20026;-68
2022/12/08 02:03:38;;;;;;;5.88;0.90;;;6.80;99.90;;;;;;5015314;28;20022;-69
2022/12/08 02:06:04;;;;;;;4.38;1.10;;;6.80;99.90;;;;;;5015180;28;20048;-69
2022/12/08 02:08:31;;;;;;;4.30;1.10;;;6.80;99.90;;;;;;5014951;28;20447;-70
2022/12/08 02:10:56;;;;;;;2.22;0.70;;;6.80;99.90;;;;;;5014643;28;20032;-70
2022/12/08 02:13:23;;;;;;;3.42;0.70;;;6.80;99.90;;;;;;5014803;28;20037;-70
2022/12/08 02:16:11;;;;;;;5.13;1.15;;;6.70;99.90;;;;;;5013668;28;20490;-70
2022/12/08 02:18:59;;;;;;;7.28;1.05;;;6.60;99.90;;;;;;5014714;28;20097;-70
2022/12/08 02:21:28;;;;;;;5.90;0.90;;;6.50;99.90;;;;;;5014651;28;20038;-70
2022/12/08 02:24:14;;;;;;;5.47;1.10;;;6.40;99.90;;;;;;5014888;28;20030;-70
2022/12/08 02:27:02;;;;;;;4.85;1.33;;;6.40;99.90;;;;;;5014766;28;20030;-70
2022/12/08 02:30:05;;;;;;;4.75;0.55;;;6.30;99.90;;;;;;5014056;28;20545;-70
2022/12/08 02:32:58;;;;;;;12.60;1.15;;;6.20;99.90;;;;;;5014308;28;20030;-70
2022/12/08 02:35:34;;;;;;;5.68;1.10;;;6.20;99.90;;;;;;5014195;28;20025;-70
2022/12/08 02:38:15;;;;;;;7.88;1.10;;;6.20;99.90;;;;;;5013989;28;20130;-70
2022/12/08 02:40:58;;;;;;;4.82;0.90;;;6.30;99.90;;;;;;5024453;28;20029;-69
2022/12/08 02:43:37;;;;;;;10.30;1.08;;;6.30;99.90;;;;;;5034202;28;20021;-70
2022/12/08 02:46:09;;;;;;;5.28;1.00;;;6.30;99.90;;;;;;5033480;28;20533;-69
2022/12/08 02:48:35;;;;;;;2.60;0.80;;;6.40;99.90;;;;;;5034157;28;20249;-68
2022/12/08 02:51:01;;;;;;;5.88;0.85;;;6.40;99.90;;;;;;5033967;28;20401;-69
2022/12/08 02:53:30;;;;;;;3.53;0.80;;;6.40;99.90;;;;;;5018657;28;20470;-69
2022/12/08 02:56:13;;;;;;;8.90;1.27;;;6.50;99.90;;;;;;5014048;28;20034;-69
2022/12/08 02:59:03;;;;;;;7.90;2.05;;;6.50;99.90;;;;;;5013913;28;20133;-69
2022/12/08 03:01:45;;;;;;;1.35;0.52;;;6.50;99.90;;;;;;5014047;28;20022;-70
2022/12/08 03:04:34;;;;;;;3.72;0.60;;;6.50;99.90;;;;;;5013954;28;20026;-69
2022/12/08 03:07:10;;;;;;;1.98;0.60;;;6.40;99.90;;;;;;5019200;28;20029;-69
2022/12/08 03:10:04;;;;;;;4.50;1.00;;;6.40;99.90;;;;;;5027248;28;20030;-70
2022/12/08 03:12:36;;;;;;;2.92;0.80;;;6.40;99.90;;;;;;5024760;28;20025;-70
2022/12/08 03:15:10;;;;;;;8.20;0.88;;;6.40;99.90;;;;;;5033541;28;20028;-70
2022/12/08 03:17:38;;;;;;;2.78;0.80;;;6.40;99.90;;;;;;5033528;28;20014;-71
2022/12/08 03:20:09;;;;;;;4.70;0.85;;;6.50;99.90;;;;;;5033486;28;20029;-70
2022/12/08 03:22:38;;;;;;;7.97;1.23;;;6.50;99.90;;;;;;5032966;28;20376;-70
2022/12/08 03:25:04;;;;;;;5.35;0.80;;;6.50;99.90;;;;;;5032304;28;20017;-70
2022/12/08 03:27:30;;;;;;;2.80;0.60;;;6.50;99.90;;;;;;5033462;28;20037;-70
2022/12/08 03:29:58;;;;;;;4.97;0.77;;;6.50;99.90;;;;;;5028838;28;20018;-71
2022/12/08 03:32:46;;;;;;;6.47;1.00;;;6.40;99.90;;;;;;5032699;28;20458;-70
2022/12/08 03:35:28;;;;;;;1.65;0.75;;;6.40;99.90;;;;;;5033171;28;20508;-71
2022/12/08 03:38:06;;;;;;;2.30;0.70;;;6.40;99.90;;;;;;5025691;28;20370;-70
2022/12/08 03:40:32;;;;;;;7.65;1.10;;;6.40;99.90;;;;;;5023844;28;20095;-70
2022/12/08 03:42:57;;;;;;;3.88;0.85;;;6.40;99.90;;;;;;5033021;28;20104;-70
2022/12/08 03:45:23;;;;;;;9.05;1.45;;;6.40;99.90;;;;;;5031652;28;20484;-70
2022/12/08 03:47:48;;;;;;;3.25;0.85;;;6.40;99.90;;;;;;5012767;28;20030;-70
2022/12/08 03:50:14;;;;;;;3.35;0.73;;;6.40;99.90;;;;;;5013023;28;20128;-71
2022/12/08 03:52:40;;;;;;;0.90;0.32;;;6.40;99.90;;;;;;5011740;28;20112;-70
2022/12/08 03:55:06;;;;;;;4.60;0.70;;;6.30;99.90;;;;;;5012739;28;20065;-70
2022/12/08 03:57:32;;;;;;;12.95;1.85;;;6.20;99.90;;;;;;5026605;28;20017;-71
2022/12/08 03:59:58;;;;;;;5.75;1.00;;;6.20;99.90;;;;;;5032132;28;20034;-70
2022/12/08 04:02:23;;;;;;;7.43;0.88;;;6.20;99.90;;;;;;5032750;28;20036;-69
2022/12/08 04:04:49;;;;;;;3.83;0.70;;;6.20;99.90;;;;;;5032102;28;20104;-70
2022/12/08 04:07:14;;;;;;;3.35;0.82;;;6.20;99.90;;;;;;5032142;28;20052;-70
2022/12/08 04:09:40;;;;;;;4.93;1.40;;;6.20;99.90;;;;;;5032157;28;20060;-70
2022/12/08 04:12:06;;;;;;;4.43;1.20;;;6.20;99.90;;;;;;5032419;28;20532;-70
2022/12/08 04:14:32;;;;;;;2.45;0.57;;;6.20;99.90;;;;;;5032909;28;20037;-70
2022/12/08 04:16:58;;;;;;;8.05;0.70;;;6.20;99.90;;;;;;5031258;28;20097;-70
2022/12/08 04:19:23;;;;;;;5.35;0.60;;;6.20;99.90;;;;;;5015208;28;20045;-70
2022/12/08 04:21:49;;;;;;;4.72;0.70;;;6.20;99.90;;;;;;5031887;28;20034;-69
2022/12/08 04:24:14;;;;;;;1.73;0.30;;;6.10;99.90;;;;;;5032392;28;20124;-69
2022/12/08 04:26:40;;;;;;;3.53;0.50;;;6.10;99.90;;;;;;5016353;28;20025;-70
2022/12/08 04:29:06;;;;;;;5.82;0.73;;;6.00;99.90;;;;;;5012248;28;20040;-70
2022/12/08 04:31:31;;;;;;;7.32;0.73;;;5.90;99.90;;;;;;5035128;28;20472;-70
2022/12/08 04:33:57;;;;;;;4.03;0.50;;;5.90;99.90;;;;;;5032021;28;20079;-70
2022/12/08 04:36:22;;;;;;;2.50;0.70;;;5.80;99.90;;;;;;5012057;28;20033;-70
2022/12/08 04:38:48;;;;;;;4.40;0.50;;;5.80;99.90;;;;;;5012442;28;20022;-70
2022/12/08 04:41:13;;;;;;;3.03;0.45;;;5.70;99.90;;;;;;5025875;28;20021;-71
2022/12/08 04:43:40;;;;;;;3.63;0.52;;;5.70;99.90;;;;;;5032107;28;20021;-70
2022/12/08 04:46:08;;;;;;;1.45;0.30;;;5.70;99.90;;;;;;5027605;28;20072;-70
2022/12/08 04:48:33;;;;;;;2.25;0.43;;;5.70;99.90;;;;;;5032284;28;20104;-69
2022/12/08 04:50:59;;;;;;;4.50;0.47;;;5.70;99.90;;;;;;5031531;28;20108;-70
2022/12/08 04:53:25;;;;;;;3.55;0.52;;;5.70;99.90;;;;;;5031534;28;20473;-69
2022/12/08 04:55:51;;;;;;;3.28;1.05;;;5.70;99.90;;;;;;5031904;28;20018;-70
2022/12/08 04:58:18;;;;;;;4.78;0.85;;;5.70;99.90;;;;;;5031749;28;20079;-70
2022/12/08 05:00:44;;;;;;;2.50;1.15;;;5.70;99.90;;;;;;5031955;28;20043;-68
2022/12/08 05:03:10;;;;;;;7.47;1.50;;;5.70;99.90;;;;;;5032174;28;20450;-69
2022/12/08 05:05:35;;;;;;;2.20;1.10;;;5.70;99.90;;;;;;5034986;28;20052;-69
2022/12/08 05:08:01;;;;;;;12.52;4.32;;;5.70;99.90;;;;;;5036125;28;20029;-69
2022/12/08 05:10:27;;;;;;;10.48;3.55;;;5.70;99.90;;;;;;5033135;28;20044;-69
2022/12/08 05:12:53;;;;;;;3.13;0.55;;;5.80;99.90;;;;;;5035437;28;20025;-69
2022/12/08 05:15:18;;;;;;;12.30;3.33;;;5.70;99.90;;;;;;5035765;28;20377;-70
2022/12/08 05:17:44;;;;;;;11.63;3.45;;;5.60;99.90;;;;;;5035793;28;20754;-70
2022/12/08 05:20:10;;;;;;;5.22;1.13;;;5.50;99.90;;;;;;5035831;28;20061;-70
2022/12/08 05:22:36;;;;;;;5.57;1.38;;;5.40;99.90;;;;;;5036048;28;20033;-71
2022/12/08 05:25:01;;;;;;;3.75;0.93;;;5.40;99.90;;;;;;5035369;28;20029;-70
2022/12/08 05:27:27;;;;;;;3.35;1.02;;;5.40;99.90;;;;;;5034491;28;20025;-70
2022/12/08 05:29:52;;;;;;;6.35;1.20;;;5.40;99.90;;;;;;5034269;28;20023;-69
2022/12/08 05:32:18;;;;;;;4.47;1.45;;;5.40;99.90;;;;;;5032788;28;20021;-69
2022/12/08 05:34:44;;;;;;;10.88;1.73;;;5.40;99.90;;;;;;5025955;28;20029;-69
2022/12/08 05:37:09;;;;;;;5.05;1.40;;;5.50;99.90;;;;;;5034424;28;20033;-69
2022/12/08 05:39:35;;;;;;;9.45;2.00;;;5.40;99.90;;;;;;5035910;28;20033;-70
2022/12/08 05:42:00;;;;;;;7.25;1.85;;;5.50;99.90;;;;;;5035072;28;20037;-68
2022/12/08 05:44:26;;;;;;;8.88;1.85;;;5.50;99.90;;;;;;5035145;28;20103;-70
2022/12/08 05:46:52;;;;;;;9.15;2.17;;;5.50;99.90;;;;;;5023274;28;20034;-69
2022/12/08 05:49:17;;;;;;;15.70;3.72;;;5.50;99.90;;;;;;5027047;28;20026;-69
2022/12/08 05:51:43;;;;;;;15.82;3.90;;;5.50;99.90;;;;;;5033871;28;20033;-69
2022/12/08 05:54:09;;;;;;;17.02;3.50;;;5.50;99.90;;;;;;5034652;28;20464;-68
2022/12/08 05:56:34;;;;;;;15.90;2.65;;;5.60;99.90;;;;;;5034791;28;20067;-69
2022/12/08 05:59:00;;;;;;;10.85;2.60;;;5.60;99.90;;;;;;5024752;28;20033;-70
2022/12/08 06:01:30;;;;;;;13.05;2.65;;;5.60;99.90;;;;;;5025765;28;20795;-68
2022/12/08 06:03:57;;;;;;;14.63;3.13;;;5.60;99.90;;;;;;5023267;28;20033;-68
2022/12/08 06:06:23;;;;;;;8.82;2.35;;;5.60;99.90;;;;;;5034885;28;20435;-69
2022/12/08 06:08:48;;;;;;;9.63;2.40;;;5.60;99.90;;;;;;5034706;28;20163;-68
2022/12/08 06:11:20;;;;;;;13.10;2.67;;;5.50;99.90;;;;;;5034535;28;20021;-69
2022/12/08 06:13:46;;;;;;;11.57;2.77;;;5.40;99.90;;;;;;5035345;28;20112;-68
2022/12/08 06:16:11;;;;;;;11.98;2.47;;;5.50;99.90;;;;;;5033691;28;20025;-69
2022/12/08 06:18:37;;;;;;;10.80;2.90;;;5.50;99.90;;;;;;5029921;28;20030;-68
2022/12/08 06:21:15;;;;;;;7.53;2.40;;;5.60;99.90;;;;;;5012986;28;20041;-68
2022/12/08 06:23:42;;;;;;;8.00;2.00;;;5.60;99.90;;;;;;5022780;28;20014;-70
2022/12/08 06:26:13;;;;;;;6.15;2.08;;;5.60;99.90;;;;;;5014761;28;20030;-70
2022/12/08 06:28:40;;;;;;;7.00;1.80;;;5.60;99.90;;;;;;5014721;28;20033;-70
2022/12/08 06:31:16;;;;;;;8.13;2.08;;;5.60;99.90;;;;;;5029576;28;20056;-71
2022/12/08 06:33:42;;;;;;;7.53;1.77;;;5.60;99.90;;;;;;5034326;28;20041;-71
2022/12/08 06:36:11;;;;;;;6.00;1.67;;;5.50;99.90;;;;;;5033259;28;20028;-70
2022/12/08 06:38:37;;;;;;;9.32;1.65;;;5.50;99.90;;;;;;5034109;28;20033;-71
2022/12/08 06:41:04;;;;;;;8.80;2.50;;;5.40;99.90;;;;;;5034297;28;20029;-69
2022/12/08 06:43:30;;;;;;;7.50;2.88;;;5.40;99.90;;;;;;5033168;28;20104;-69
2022/12/08 06:45:56;;;;;;;10.20;2.55;;;5.40;99.90;;;;;;5033681;28;20144;-69
2022/12/08 06:48:22;;;;;;;17.00;3.65;;;5.40;99.90;;;;;;5033865;28;20497;-69
2022/12/08 06:50:47;;;;;;;7.07;1.60;;;5.50;99.90;;;;;;5032583;28;20022;-70
2022/12/08 06:53:14;;;;;;;6.55;1.63;;;5.50;99.90;;;;;;5025319;28;20133;-69
2022/12/08 06:55:47;;;;;;;5.53;1.33;;;5.50;99.90;;;;;;5014088;28;20458;-69
2022/12/08 06:58:13;;;;;;;4.35;1.33;;;5.60;99.90;;;;;;5013754;28;20125;-70
2022/12/08 07:00:40;;;;;;;9.38;2.75;;;5.60;99.90;;;;;;5013964;28;20474;-70
2022/12/08 07:03:07;;;;;;;6.45;1.70;;;5.60;99.90;;;;;;5026562;28;20037;-69
2022/12/08 07:05:33;;;;;;;8.05;2.58;;;5.60;99.90;;;;;;5033877;28;20389;-69
2022/12/08 07:07:59;;;;;;;4.95;2.00;;;5.60;99.90;;;;;;5033470;28;20026;-68
2022/12/08 07:10:24;;;;;;;8.00;2.10;;;5.50;99.90;;;;;;5031962;28;20083;-68
2022/12/08 07:12:50;;;;;;;6.05;1.40;;;5.50;99.90;;;;;;5032742;28;20377;-68
2022/12/08 07:15:16;;;;;;;12.93;2.30;;;5.60;99.90;;;;;;5032599;28;20040;-68
2022/12/08 07:17:41;;;;;;;11.30;2.28;;;5.60;99.90;;;;;;5030155;28;20053;-69
2022/12/08 07:20:07;;;;;;;8.27;3.50;;;5.60;99.90;;;;;;5033255;28;20029;-68
2022/12/08 07:22:33;;;;;;;10.75;3.85;;;5.60;99.90;;;;;;5026803;28;20120;-69
2022/12/08 07:24:58;;;;;;;9.73;2.83;;;5.70;99.90;;;;;;5021487;28;20034;-69
2022/12/08 07:27:24;;;;;;;13.70;3.67;;;5.70;99.90;;;;;;5013224;28;20022;-70
2022/12/08 07:29:49;;;;;;;8.52;2.70;;;5.70;99.90;;;;;;5013022;28;20084;-69
2022/12/08 07:32:15;;;;;;;9.07;2.97;;;5.70;99.90;;;;;;5035254;28;20389;-70
2022/12/08 07:34:40;;;;;;;10.77;3.13;;;5.70;99.90;;;;;;5043730;28;20453;-69
2022/12/08 07:37:06;;;;;;;3.38;1.15;;;5.70;99.90;;;;;;5017591;28;20377;-71
2022/12/08 07:39:31;;;;;;;10.55;2.42;;;5.60;99.90;;;;;;5031288;28;20461;-69
2022/12/08 07:41:57;;;;;;;6.53;2.05;;;5.50;99.90;;;;;;5032489;28;20025;-70
2022/12/08 07:44:23;;;;;;;7.03;2.40;;;5.40;99.90;;;;;;5033279;28;20083;-70
2022/12/08 07:46:48;;;;;;;5.88;1.30;;;5.40;99.90;;;;;;5031821;28;20471;-70
2022/12/08 07:49:18;;;;;;;2.33;0.95;;;5.30;99.90;;;;;;5032615;28;20029;-70
2022/12/08 07:51:43;;;;;;;4.38;1.70;;;5.20;99.90;;;;;;5031392;28;20032;-70
2022/12/08 07:54:12;;;;;;;5.80;1.10;;;5.30;99.90;;;;;;5031972;28;20037;-70
2022/12/08 07:56:38;;;;;;;5.97;1.90;;;5.20;99.90;;;;;;5032487;28;20028;-69
2022/12/08 07:59:03;;;;;;;14.25;4.13;;;5.10;99.90;;;;;;5032919;28;20025;-70
2022/12/08 08:01:32;;;;;;;7.82;2.75;;;5.20;99.90;;;;;;5030457;28;20025;-70
2022/12/08 08:04:00;;;;;;;6.47;1.67;;;5.20;99.90;;;;;;5012523;28;20026;-70
2022/12/08 08:06:26;;;;;;;5.60;1.40;;;5.20;99.90;;;;;;5020604;28;20459;-70
2022/12/08 08:08:52;;;;;;;5.53;1.27;;;5.20;99.90;;;;;;5026040;28;20026;-70
2022/12/08 08:11:17;;;;;;;1.00;0.65;;;5.10;99.90;;;;;;5031515;28;20318;-70
2022/12/08 08:13:43;;;;;;;3.05;1.02;;;5.10;99.90;;;;;;5045039;28;20040;-70
2022/12/08 08:16:09;;;;;;;2.90;0.82;;;5.00;99.90;;;;;;5029954;28;20018;-70
2022/12/08 08:18:36;;;;;;;4.57;0.82;;;4.90;99.90;;;;;;5030430;28;20083;-69
2022/12/08 08:21:02;;;;;;;2.75;0.95;;;4.90;99.90;;;;;;5032195;28;20025;-69
2022/12/08 08:23:28;;;;;;;6.25;1.38;;;4.90;99.90;;;;;;5032020;28;20468;-70
2022/12/08 08:25:57;;;;;;;6.03;1.33;;;4.90;99.90;;;;;;5030272;28;20151;-69
2022/12/08 08:28:22;;;;;;;3.63;1.02;;;4.90;99.90;;;;;;5032654;28;20029;-70
2022/12/08 08:30:48;;;;;;;8.02;1.48;;;5.00;99.90;;;;;;5031609;28;20028;-69
2022/12/08 08:33:13;;;;;;;4.07;1.10;;;5.00;99.90;;;;;;5030375;28;20029;-69
2022/12/08 08:35:39;;;;;;;4.65;1.13;;;5.00;99.90;;;;;;5031721;28;20112;-68
2022/12/08 08:38:05;;;;;;;3.45;0.90;;;5.10;99.90;;;;;;5030520;28;20022;-70
2022/12/08 08:40:30;;;;;;;6.22;1.50;;;5.20;99.90;;;;;;5034106;28;20027;-70
2022/12/08 08:42:56;;;;;;;5.03;1.80;;;5.10;99.90;;;;;;5035800;28;20167;-70
2022/12/08 08:45:21;;;;;;;5.93;1.77;;;5.10;99.90;;;;;;5034648;28;20057;-70
2022/12/08 08:47:47;;;;;;;5.95;2.30;;;5.10;99.90;;;;;;5025893;28;20014;-70
2022/12/08 08:50:13;;;;;;;4.43;1.52;;;5.10;99.90;;;;;;5020246;28;20017;-70
2022/12/08 08:52:38;;;;;;;9.70;2.38;;;5.10;99.90;;;;;;5034432;28;20187;-70
2022/12/08 08:55:04;;;;;;;4.50;1.48;;;5.20;99.90;;;;;;5035183;28;20026;-70
2022/12/08 08:57:30;;;;;;;5.65;2.28;;;5.20;99.90;;;;;;5035637;28;20029;-70
2022/12/08 08:59:55;;;;;;;3.90;1.60;;;5.20;99.90;;;;;;5035104;28;20105;-70
2022/12/08 09:02:21;;;;;;;6.30;2.20;;;5.10;99.90;;;;;;5019738;28;20045;-70
2022/12/08 09:04:47;;;;;;;3.75;1.58;;;5.10;99.90;;;;;;5038304;28;20025;-70
2022/12/08 09:07:12;;;;;;;5.95;2.30;;;5.00;99.90;;;;;;5038433;28;20076;-70
2022/12/08 09:09:39;;;;;;;8.13;2.60;;;4.90;99.90;;;;;;5046621;28;20025;-70
2022/12/08 09:12:05;;;;;;;6.47;2.15;;;4.90;99.90;;;;;;5055441;28;20025;-70
2022/12/08 09:14:30;;;;;;;5.72;2.10;;;4.90;99.90;;;;;;5026286;28;20038;-70
2022/12/08 09:16:56;;;;;;;5.55;1.88;;;4.80;99.90;;;;;;5015560;28;20524;-70
2022/12/08 09:19:22;;;;;;;11.88;3.50;;;4.70;99.90;;;;;;5015637;28;20030;-70
2022/12/08 09:21:47;;;;;;;6.28;2.38;;;4.70;99.90;;;;;;5031015;28;20036;-70
2022/12/08 09:24:16;;;;;;;7.32;2.30;;;4.60;99.90;;;;;;5034018;28;20048;-70
2022/12/08 09:26:42;;;;;;;7.43;2.55;;;4.50;99.90;;;;;;5034359;28;20057;-70
2022/12/08 09:29:09;;;;;;;7.55;2.05;;;4.40;99.90;;;;;;5022877;28;20037;-70
2022/12/08 09:31:35;;;;;;;9.45;2.58;;;4.40;99.90;;;;;;5027005;28;20028;-70
2022/12/08 09:34:01;;;;;;;4.45;1.90;;;4.50;99.90;;;;;;5024869;28;20034;-70
2022/12/08 09:36:26;;;;;;;8.23;1.92;;;4.50;99.90;;;;;;5011532;28;20037;-71
2022/12/08 09:38:53;;;;;;;9.68;1.50;;;4.40;99.90;;;;;;5022597;28;20083;-70
2022/12/08 09:41:36;;;;;;;3.25;1.15;;;4.40;99.90;;;;;;5020304;28;20066;-70
2022/12/08 09:44:41;;;;;;;1.75;0.73;;;4.40;99.90;;;;;;5034685;28;20044;-70
2022/12/08 09:47:21;;;;;;;4.20;1.30;;;4.40;99.90;;;;;;5010936;28;20112;-70
2022/12/08 09:50:11;;;;;;;3.92;1.90;;;4.30;99.90;;;;;;5034171;28;20021;-71
2022/12/08 09:53:14;;;;;;;2.15;0.88;;;4.40;99.90;;;;;;5052512;28;20029;-70
2022/12/08 09:55:55;;;;;;;3.70;1.85;;;4.40;99.90;;;;;;5028239;28;20048;-70
2022/12/08 09:58:34;;;;;;;4.57;1.27;;;4.50;99.90;;;;;;5034368;28;20022;-70
2022/12/08 10:00:59;;;;;;;2.33;0.85;;;4.50;99.90;;;;;;5042915;28;20406;-70
2022/12/08 10:03:28;;;;;;;2.20;1.15;;;4.50;99.90;;;;;;5038271;28;20159;-70
2022/12/08 10:06:37;;;;;;;1.40;1.00;;;4.60;99.90;;;;;;5047868;28;20021;-69
2022/12/08 10:09:26;;;;;;;1.45;1.00;;;4.60;99.90;;;;;;5037105;28;20033;-69
2022/12/08 10:12:01;;;;;;;2.90;1.23;;;4.60;99.90;;;;;;5037436;28;20039;-69
2022/12/08 10:14:46;;;;;;;2.58;0.95;;;4.80;99.90;;;;;;5041274;28;20076;-70
2022/12/08 10:17:40;;;;;;;3.15;1.35;;;4.80;99.90;;;;;;5044586;28;20037;-70
2022/12/08 10:20:15;;;;;;;4.25;1.10;;;4.90;99.90;;;;;;5039377;28;20025;-70
2022/12/08 10:22:41;;;;;;;5.60;2.00;;;4.90;99.90;;;;;;5040062;28;20021;-70
2022/12/08 10:25:17;;;;;;;2.13;1.60;;;4.90;99.90;;;;;;5042029;28;20363;-69
2022/12/08 10:27:44;;;;;;;4.85;1.60;;;5.00;99.90;;;;;;5046769;28;20029;-68
2022/12/08 10:30:15;;;;;;;6.07;2.42;;;5.10;99.90;;;;;;5040085;28;20030;-69
2022/12/08 10:32:44;;;;;;;7.35;2.47;;;5.10;99.90;;;;;;5037322;28;20033;-69
2022/12/08 10:35:12;;;;;;;8.23;2.95;;;5.20;99.90;;;;;;5044148;28;20083;-69
2022/12/08 10:37:39;;;;;;;7.15;2.45;;;5.20;99.90;;;;;;5045057;28;20017;-69
2022/12/08 10:40:13;;;;;;;3.95;2.40;;;5.30;99.90;;;;;;5031410;28;20028;-70
2022/12/08 10:42:51;;;;;;;5.18;2.72;;;5.50;99.90;;;;;;5048502;28;20024;-69
2022/12/08 10:45:24;;;;;;;5.78;2.28;;;5.60;99.90;;;;;;5036498;28;20047;-69
2022/12/08 10:48:05;;;;;;;5.60;2.70;;;5.70;99.90;;;;;;5041615;28;20029;-70
2022/12/08 10:50:53;;;;;;;3.28;2.00;;;5.80;99.90;;;;;;5033819;28;20034;-70
2022/12/08 10:53:45;;;;;;;3.58;2.35;;;5.90;99.90;;;;;;5018932;28;20094;-69
2022/12/08 10:56:13;;;;;;;;;;;6.10;99.90;;;;;;5038891;28;20116;-69
2022/12/08 10:58:47;;;;;;;4.18;2.17;;;6.20;99.90;;;;;;5042515;28;19915;-70
2022/12/08 11:01:21;;;;;;;5.13;2.17;;;6.20;99.90;;;;;;5049571;28;20017;-70
2022/12/08 11:03:54;;;;;;;3.22;2.08;;;6.50;99.90;;;;;;5035317;28;20053;-69
2022/12/08 11:06:30;;;;;;;3.88;1.90;;;6.80;99.90;;;;;;5045743;28;20071;-68
2022/12/08 11:09:05;;;;;;;4.70;2.78;;;7.10;99.90;;;;;;5036397;28;20119;-67
2022/12/08 11:11:58;;;;;;;6.32;2.00;;;7.20;99.90;;;;;;5046514;28;20024;-68
2022/12/08 11:14:32;;;;;;;5.93;1.92;;;7.20;99.90;;;;;;5038606;28;20056;-68
2022/12/08 11:17:28;;;;;;;5.30;1.50;;;7.10;99.90;;;;;;5036457;28;20025;-69
2022/12/08 11:20:00;;;;;;;4.38;2.00;;;6.80;99.90;;;;;;5043855;28;20125;-69
2022/12/08 11:22:38;;;;;;;5.60;2.00;;;6.80;99.90;;;;;;5038902;28;20013;-70
2022/12/08 11:25:07;;;;;;;3.33;1.63;;;6.90;99.90;;;;;;5038009;28;20030;-68
2022/12/08 11:27:35;;;;;;;2.58;1.38;;;7.30;99.90;;;;;;5048638;28;20122;-68
2022/12/08 11:30:33;;;;;;;4.15;1.60;;;7.70;99.90;;;;;;5029041;28;20376;-70
2022/12/08 11:33:14;;;;;;;1.92;1.38;;;8.40;99.90;;;;;;5037640;28;20111;-68
2022/12/08 11:35:43;;;;;;;4.43;2.30;;;9.20;99.90;;;;;;5033924;28;20033;-68
2022/12/08 11:38:21;;;;;;;4.40;1.30;;;9.80;99.90;;;;;;5034729;28;20026;-68
2022/12/08 11:41:13;;;;;;;7.35;1.77;;;10.30;99.90;;;;;;5028581;28;20062;-69
2022/12/08 11:44:03;;;;;;;8.10;1.75;;;10.60;99.90;;;;;;5026824;28;20018;-69
2022/12/08 11:46:57;;;;;;;5.95;1.38;;;10.80;99.90;;;;;;5036172;28;20049;-69
2022/12/08 11:49:34;;;;;;;6.75;1.83;;;10.90;99.90;;;;;;5018379;28;20030;-69
2022/12/08 11:52:07;;;;;;;7.53;1.65;;;11.10;99.90;;;;;;5028908;28;20028;-69
2022/12/08 11:54:38;;;;;;;4.28;1.20;;;11.20;99.90;;;;;;5032556;28;20069;-70
2022/12/08 11:57:07;;;;;;;6.75;1.52;;;11.40;99.90;;;;;;5030666;28;20068;-69
2022/12/08 11:59:45;;;;;;;5.43;1.83;;;11.50;99.90;;;;;;5031340;28;20041;-70
2022/12/08 12:02:16;;;;;;;8.98;2.58;;;11.80;99.90;;;;;;5030406;28;20129;-68
2022/12/08 12:04:54;;;;;;;5.95;1.67;;;12.10;99.90;;;;;;5027661;28;20052;-70
2022/12/08 12:07:34;;;;;;;3.88;1.27;;;12.10;99.90;;;;;;5034237;28;20025;-68
2022/12/08 12:10:20;;;;;;;7.93;1.58;;;11.50;99.90;;;;;;5032184;28;20469;-68
2022/12/08 12:13:08;;;;;;;7.13;1.60;;;11.00;99.90;;;;;;5031237;28;20025;-68
2022/12/08 12:16:12;;;;;;;6.03;1.67;;;10.40;99.90;;;;;;5031214;28;20033;-68
2022/12/08 12:18:57;;;;;;;5.45;0.90;;;9.80;99.90;;;;;;5028198;28;20040;-68
2022/12/08 12:21:40;;;;;;;8.27;1.60;;;9.20;99.90;;;;;;5033143;28;20380;-69
2022/12/08 12:24:40;;;;;;;4.20;1.40;;;8.80;99.90;;;;;;5027739;28;20417;-70
2022/12/08 12:27:23;;;;;;;5.70;1.00;;;8.50;99.90;;;;;;5029236;28;20033;-70
2022/12/08 12:29:57;;;;;;;8.57;1.00;;;8.20;99.90;;;;;;5031191;28;20523;-69
2022/12/08 12:32:24;;;;;;;7.95;0.98;;;8.00;99.90;;;;;;5032150;28;20538;-69
2022/12/08 12:34:54;;;;;;;11.40;2.08;;;7.80;99.90;;;;;;5031141;28;20041;-70
2022/12/08 12:37:26;;;;;;;10.15;1.25;;;7.70;99.90;;;;;;5033588;28;20029;-68
2022/12/08 12:40:18;;;;;;;7.75;1.85;;;7.50;99.90;;;;;;5022517;28;20415;-68
2022/12/08 12:43:08;;;;;;;10.55;2.78;;;7.40;99.90;;;;;;5028059;28;20038;-69
2022/12/08 12:45:35;;;;;;;10.23;1.92;;;7.30;99.90;;;;;;5031081;28;20053;-68
2022/12/08 12:48:00;;;;;;;3.95;1.40;;;7.10;99.90;;;;;;5030900;28;20037;-69
2022/12/08 12:50:32;;;;;;;6.75;1.70;;;7.00;99.90;;;;;;5031584;28;20374;-69
2022/12/08 12:53:01;;;;;;;9.20;1.75;;;6.90;99.90;;;;;;5032563;28;20034;-69
2022/12/08 12:55:48;;;;;;;5.20;1.65;;;6.80;99.90;;;;;;5032091;28;20115;-69
2022/12/08 12:58:26;;;;;;;5.78;1.60;;;6.70;99.90;;;;;;5030564;28;20056;-68
2022/12/08 13:01:44;;;;;;;4.65;1.17;;;6.60;99.90;;;;;;5031962;28;20183;-69
2022/12/08 13:04:11;;;;;;;4.60;1.58;;;6.60;99.90;;;;;;5032240;28;20550;-68
2022/12/08 13:06:41;;;;;;;10.98;1.85;;;6.60;99.90;;;;;;5030956;28;20105;-69
2022/12/08 13:09:38;;;;;;;8.98;1.83;;;6.60;99.90;;;;;;5030516;28;20029;-69
2022/12/08 13:12:10;;;;;;;9.00;1.42;;;6.60;99.90;;;;;;5030406;28;20511;-68
2022/12/08 13:14:44;;;;;;;9.13;2.33;;;6.60;99.90;;;;;;5031190;28;20492;-68
2022/12/08 13:17:12;;;;;;;7.53;1.80;;;6.60;99.90;;;;;;5035072;28;20037;-68
2022/12/08 13:19:39;;;;;;;9.55;1.90;;;6.70;99.90;;;;;;5029047;28;20021;-69